Time;durP1;ratioP1;P1;durP2;ratioP2;P2;SDS_P1;SDS_P2;PMS_P1;PMS_P2;Temp;Humidity;BMP_temperature;BMP_pressure;BME280_temperature;BME280_humidity;BME280_pressure;Samples;Min_cycle;Max_cycle;Signal;HPM_P1;HPM_P2
2021/06/03 00:01:56;;;;;;;4.70;4.30;;;18.50;1.00;;;;;;5074053;28;20606;-88
2021/06/03 00:04:22;;;;;;;4.50;4.10;;;18.50;1.00;;;;;;5074437;28;20178;-85
2021/06/03 00:06:47;;;;;;;4.47;3.40;;;18.40;1.00;;;;;;5074432;28;20168;-84
2021/06/03 00:09:14;;;;;;;3.40;3.10;;;18.40;1.00;;;;;;5074471;28;20182;-84
2021/06/03 00:11:40;;;;;;;5.23;4.77;;;18.40;1.00;;;;;;5074156;28;20232;-84
2021/06/03 00:14:06;;;;;;;6.90;3.67;;;18.40;1.00;;;;;;5056366;28;20449;-84
2021/06/03 00:16:33;;;;;;;4.93;3.20;;;18.30;1.00;;;;;;5073776;28;20405;-85
2021/06/03 00:19:05;;;;;;;5.10;3.70;;;18.30;1.00;;;;;;5056431;28;20644;-84
2021/06/03 00:21:32;;;;;;;3.43;3.00;;;18.20;1.00;;;;;;5074095;28;20415;-86
2021/06/03 00:23:57;;;;;;;4.20;3.80;;;18.20;1.00;;;;;;5074202;28;20559;-85
2021/06/03 00:26:23;;;;;;;4.20;3.13;;;18.00;1.00;;;;;;5074387;28;20408;-88
2021/06/03 00:28:48;;;;;;;5.40;4.37;;;18.00;1.00;;;;;;5057080;28;20269;-87
2021/06/03 00:31:14;;;;;;;4.97;3.53;;;17.90;1.00;;;;;;5055797;28;20187;-85
2021/06/03 00:33:40;;;;;;;4.47;3.77;;;17.90;1.00;;;;;;5073023;28;20229;-84
2021/06/03 00:36:07;;;;;;;5.30;3.70;;;17.90;1.00;;;;;;5055991;28;20424;-86
2021/06/03 00:38:32;;;;;;;4.63;3.77;;;17.90;1.00;;;;;;5073920;28;20163;-86
2021/06/03 00:40:58;;;;;;;6.53;5.00;;;17.80;1.00;;;;;;5073770;28;20871;-90
2021/06/03 00:43:24;;;;;;;6.03;3.40;;;17.80;1.00;;;;;;5073518;28;20289;-85
2021/06/03 00:45:49;;;;;;;4.10;3.30;;;17.70;1.00;;;;;;5073241;28;20496;-88
2021/06/03 00:48:15;;;;;;;4.13;3.43;;;17.60;1.00;;;;;;5073454;28;20235;-85
2021/06/03 00:50:50;;;;;;;4.77;3.23;;;17.70;1.00;;;;;;5073620;28;20173;-92
2021/06/03 00:53:17;;;;;;;3.50;2.80;;;17.60;1.00;;;;;;5055631;28;20181;-86
2021/06/03 00:55:46;;;;;;;3.80;3.20;;;17.60;1.00;;;;;;5073482;28;20772;-91
2021/06/03 00:58:12;;;;;;;4.03;3.37;;;17.60;1.00;;;;;;5073769;28;20421;-84
2021/06/03 01:00:38;;;;;;;3.60;3.30;;;17.50;1.00;;;;;;5074135;28;20423;-88
2021/06/03 01:03:04;;;;;;;7.03;4.07;;;17.50;1.00;;;;;;5073829;28;20218;-86
2021/06/03 01:05:45;;;;;;;4.37;3.20;;;17.40;1.00;;;;;;5074269;28;20177;-86
2021/06/03 01:08:14;;;;;;;4.87;3.20;;;17.40;1.00;;;;;;5073572;28;20418;-87
2021/06/03 01:10:50;;;;;;;3.53;3.23;;;17.40;1.00;;;;;;5063396;28;20534;-88
2021/06/03 01:13:22;;;;;;;3.43;2.87;;;17.40;1.00;;;;;;5093607;28;20494;-85
2021/06/03 01:15:49;;;;;;;4.97;3.60;;;17.40;1.00;;;;;;5093112;28;20972;-85
2021/06/03 01:18:15;;;;;;;3.90;3.33;;;17.30;1.00;;;;;;5093484;28;20407;-86
2021/06/03 01:20:46;;;;;;;3.90;3.07;;;17.30;1.00;;;;;;5091957;28;20914;-85
2021/06/03 01:23:38;;;;;;;6.70;3.60;;;17.30;1.00;;;;;;5093429;28;20481;-86
2021/06/03 01:26:05;;;;;;;4.10;3.43;;;17.20;1.00;;;;;;5093476;28;20923;-86
2021/06/03 01:28:32;;;;;;;4.00;3.60;;;17.20;1.00;;;;;;5092033;28;20772;-88
2021/06/03 01:30:58;;;;;;;4.37;3.80;;;17.10;1.00;;;;;;5093060;28;20407;-87
2021/06/03 01:33:27;;;;;;;4.33;3.90;;;17.10;1.00;;;;;;5093199;28;20498;-88
2021/06/03 01:35:57;;;;;;;4.07;3.50;;;17.20;1.00;;;;;;5093473;28;20162;-85
2021/06/03 01:38:29;;;;;;;5.07;3.97;;;17.20;1.00;;;;;;5093163;28;20435;-85
2021/06/03 01:40:57;;;;;;;4.70;3.73;;;17.10;1.00;;;;;;5093082;28;20929;-86
2021/06/03 01:43:24;;;;;;;4.23;3.70;;;17.00;1.00;;;;;;5093211;28;20468;-86
2021/06/03 01:45:51;;;;;;;4.27;3.57;;;17.00;1.00;;;;;;5096173;28;20415;-86
2021/06/03 01:48:19;;;;;;;4.60;3.80;;;17.10;1.00;;;;;;5096023;28;20548;-86
2021/06/03 01:50:47;;;;;;;5.03;3.17;;;17.10;1.00;;;;;;5097194;28;20411;-89
2021/06/03 01:53:14;;;;;;;5.83;4.87;;;17.10;1.00;;;;;;5096944;28;20415;-86
2021/06/03 01:55:40;;;;;;;3.83;3.03;;;17.10;1.00;;;;;;5097055;28;20420;-86
2021/06/03 01:58:05;;;;;;;5.07;3.70;;;17.10;1.00;;;;;;5097056;28;21046;-85
2021/06/03 02:00:32;;;;;;;3.70;3.17;;;17.10;1.00;;;;;;5097015;28;20549;-86
2021/06/03 02:02:57;;;;;;;3.50;3.13;;;17.10;1.00;;;;;;5096938;28;20249;-90
2021/06/03 02:05:24;;;;;;;5.57;3.67;;;17.10;1.00;;;;;;5097370;28;20494;-90
2021/06/03 02:07:50;;;;;;;4.40;3.37;;;17.00;1.00;;;;;;5095791;28;20170;-85
2021/06/03 02:10:17;;;;;;;3.40;3.10;;;17.10;1.00;;;;;;5094360;28;20406;-87
2021/06/03 02:13:06;;;;;;;3.67;3.37;;;17.00;1.00;;;;;;5076804;28;20400;-85
2021/06/03 02:15:40;;;;;;;3.93;3.50;;;17.00;1.90;;;;;;5076303;28;20404;-85
2021/06/03 02:18:11;;;;;;;4.20;3.53;;;16.90;1.00;;;;;;5058556;28;20896;-86
2021/06/03 02:20:40;;;;;;;3.93;3.53;;;16.90;1.00;;;;;;5076375;28;20992;-85
2021/06/03 02:23:06;;;;;;;4.70;3.77;;;16.90;1.00;;;;;;5076209;28;20474;-87
2021/06/03 02:25:32;;;;;;;4.43;3.23;;;16.90;1.00;;;;;;5076276;28;20424;-87
2021/06/03 02:27:58;;;;;;;4.90;3.83;;;16.90;1.00;;;;;;5076209;28;20447;-86
2021/06/03 02:30:25;;;;;;;4.67;4.27;;;16.90;1.20;;;;;;5058150;28;20616;-86
2021/06/03 02:32:52;;;;;;;4.43;3.73;;;16.90;1.00;;;;;;5075867;28;20431;-86
2021/06/03 02:35:19;;;;;;;4.07;3.30;;;16.80;1.00;;;;;;5076116;28;20419;-87
2021/06/03 02:37:45;;;;;;;5.03;3.73;;;16.70;1.00;;;;;;5076244;28;20457;-86
2021/06/03 02:40:17;;;;;;;5.67;3.40;;;16.70;5.50;;;;;;5058157;28;21067;-84
2021/06/03 02:42:45;;;;;;;4.90;4.20;;;16.70;4.80;;;;;;5076013;28;21029;-87
2021/06/03 02:45:24;;;;;;;8.30;3.70;;;16.70;1.00;;;;;;5075892;28;20419;-85
2021/06/03 02:47:51;;;;;;;6.37;4.33;;;16.80;1.00;;;;;;5075610;28;20407;-86
2021/06/03 02:50:19;;;;;;;3.93;3.63;;;16.80;1.00;;;;;;5075753;28;20407;-88
2021/06/03 02:52:44;;;;;;;4.33;3.50;;;16.80;1.00;;;;;;5057799;28;20427;-85
2021/06/03 02:55:13;;;;;;;4.70;4.07;;;16.90;1.00;;;;;;5075370;28;20411;-85
2021/06/03 02:57:39;;;;;;;5.10;3.80;;;16.80;1.00;;;;;;5056761;28;20338;-89
2021/06/03 03:00:11;;;;;;;6.23;4.20;;;16.90;1.00;;;;;;5075738;28;20444;-87
2021/06/03 03:02:37;;;;;;;5.23;4.70;;;16.70;3.50;;;;;;5075267;28;20291;-85
2021/06/03 03:05:04;;;;;;;5.40;4.03;;;16.80;2.70;;;;;;5057553;28;21026;-85
2021/06/03 03:07:32;;;;;;;5.33;4.30;;;16.70;6.20;;;;;;5075578;28;20531;-87
2021/06/03 03:09:58;;;;;;;4.30;3.90;;;16.60;9.50;;;;;;5075487;28;20907;-85
2021/06/03 03:12:24;;;;;;;5.00;4.30;;;16.70;11.90;;;;;;5075413;28;20451;-86
2021/06/03 03:14:49;;;;;;;6.73;4.90;;;16.60;14.30;;;;;;5075365;28;20869;-86
2021/06/03 03:17:15;;;;;;;5.20;4.70;;;16.60;13.40;;;;;;5074919;28;20178;-84
2021/06/03 03:19:40;;;;;;;6.13;4.80;;;16.60;15.00;;;;;;5075171;28;20180;-84
2021/06/03 03:22:06;;;;;;;5.70;5.10;;;16.70;15.00;;;;;;5057176;28;20556;-86
2021/06/03 03:24:32;;;;;;;4.13;3.80;;;16.60;19.80;;;;;;5057210;28;20773;-85
2021/06/03 03:26:57;;;;;;;6.13;4.40;;;16.60;22.30;;;;;;5057587;28;20182;-88
2021/06/03 03:29:23;;;;;;;4.80;4.30;;;16.60;25.00;;;;;;5075939;28;20269;-86
2021/06/03 03:31:49;;;;;;;5.90;4.60;;;16.50;26.30;;;;;;5075724;28;20590;-87
2021/06/03 03:34:14;;;;;;;4.30;3.90;;;16.40;27.70;;;;;;5075385;28;20173;-85
2021/06/03 03:36:40;;;;;;;4.40;3.77;;;16.50;27.40;;;;;;5075034;28;20190;-85
2021/06/03 03:39:06;;;;;;;5.03;4.47;;;16.50;26.40;;;;;;5056939;28;20271;-85
2021/06/03 03:41:33;;;;;;;5.40;4.90;;;16.60;26.70;;;;;;5074693;28;20187;-84
2021/06/03 03:43:58;;;;;;;6.07;4.87;;;16.70;24.90;;;;;;5074868;28;20425;-87
2021/06/03 03:46:24;;;;;;;7.47;4.60;;;16.70;22.90;;;;;;5074081;28;20415;-87
2021/06/03 03:48:50;;;;;;;5.83;4.80;;;16.60;20.00;;;;;;5074534;28;20176;-85
2021/06/03 03:51:16;;;;;;;5.47;4.57;;;16.80;17.60;;;;;;5056422;28;20430;-86
2021/06/03 03:53:42;;;;;;;6.03;5.37;;;16.70;16.50;;;;;;5074653;28;20255;-85
2021/06/03 03:56:08;;;;;;;5.87;5.27;;;16.80;19.20;;;;;;5074633;28;20173;-87
2021/06/03 03:58:38;;;;;;;4.73;4.30;;;16.80;23.90;;;;;;5056620;28;20478;-84
2021/06/03 04:01:04;;;;;;;6.00;4.40;;;16.80;16.40;;;;;;5056313;28;20427;-86
2021/06/03 04:03:30;;;;;;;4.70;4.30;;;16.90;14.60;;;;;;5074346;28;20513;-86
2021/06/03 04:05:55;;;;;;;5.53;5.03;;;16.90;13.70;;;;;;5056306;28;20254;-86
2021/06/03 04:08:21;;;;;;;5.70;5.10;;;17.00;12.90;;;;;;5056279;28;20169;-85
2021/06/03 04:10:46;;;;;;;4.90;4.40;;;16.80;14.20;;;;;;5073975;28;20247;-86
2021/06/03 04:13:12;;;;;;;6.30;4.73;;;16.90;19.40;;;;;;5074213;28;20177;-85
2021/06/03 04:15:38;;;;;;;5.37;4.30;;;16.90;15.00;;;;;;5073779;28;20207;-87
2021/06/03 04:18:03;;;;;;;6.50;5.00;;;16.90;12.30;;;;;;5073950;28;20177;-85
2021/06/03 04:20:29;;;;;;;5.17;4.30;;;16.90;15.70;;;;;;5073902;28;20177;-85
2021/06/03 04:22:55;;;;;;;5.60;5.00;;;17.00;18.60;;;;;;5056133;28;20550;-85
2021/06/03 04:25:20;;;;;;;7.67;4.63;;;16.90;14.60;;;;;;5073785;28;20314;-84
2021/06/03 04:27:47;;;;;;;5.07;4.43;;;16.90;13.00;;;;;;5074157;28;20184;-88
2021/06/03 04:30:17;;;;;;;4.17;3.70;;;17.00;14.90;;;;;;5073930;28;20246;-87
2021/06/03 04:32:43;;;;;;;5.10;4.60;;;17.00;18.10;;;;;;5074471;28;20419;-88
2021/06/03 04:35:09;;;;;;;5.20;4.70;;;17.00;20.70;;;;;;5055945;28;20422;-85
2021/06/03 04:37:35;;;;;;;5.83;4.57;;;17.00;11.70;;;;;;5073532;28;20423;-85
2021/06/03 04:40:02;;;;;;;5.30;4.77;;;17.10;11.70;;;;;;5073742;28;20399;-85
2021/06/03 04:42:28;;;;;;;4.90;4.37;;;17.10;10.70;;;;;;5073671;28;20254;-85
2021/06/03 04:44:53;;;;;;;6.40;4.60;;;17.00;11.50;;;;;;5073874;28;20407;-92
2021/06/03 04:47:19;;;;;;;6.10;4.63;;;17.00;11.30;;;;;;5056516;28;20212;-84
2021/06/03 04:49:44;;;;;;;6.80;5.37;;;17.00;1.90;;;;;;5056761;28;20168;-89
2021/06/03 04:52:25;;;;;;;8.00;5.07;;;17.10;5.40;;;;;;5073700;28;20692;-85
2021/06/03 04:55:05;;;;;;;5.50;5.00;;;17.10;1.10;;;;;;5055661;28;20188;-83
2021/06/03 04:57:32;;;;;;;6.20;5.07;;;17.10;5.90;;;;;;5072970;28;20407;-86
2021/06/03 04:59:58;;;;;;;4.80;4.37;;;17.20;2.70;;;;;;5073461;28;20462;-87
2021/06/03 05:02:24;;;;;;;8.70;5.73;;;17.30;3.50;;;;;;5073077;28;20896;-88
2021/06/03 05:04:50;;;;;;;4.63;4.20;;;17.30;1.00;;;;;;5055514;28;20173;-86
2021/06/03 05:07:16;;;;;;;5.03;4.47;;;17.30;1.90;;;;;;5073409;28;20407;-86
2021/06/03 05:09:42;;;;;;;7.73;4.90;;;17.40;1.00;;;;;;5073462;28;20788;-87
2021/06/03 05:12:08;;;;;;;6.30;5.33;;;17.40;1.00;;;;;;5073396;28;20217;-88
2021/06/03 05:14:34;;;;;;;5.27;4.77;;;17.50;1.00;;;;;;5055964;28;20173;-86
2021/06/03 05:17:00;;;;;;;5.53;4.47;;;17.50;1.00;;;;;;5072591;28;20434;-87
2021/06/03 05:19:25;;;;;;;6.90;5.60;;;17.60;1.00;;;;;;5072207;28;20185;-87
2021/06/03 05:21:52;;;;;;;4.57;4.17;;;17.60;1.00;;;;;;5054963;28;20755;-86
2021/06/03 05:24:17;;;;;;;6.10;4.20;;;17.60;1.00;;;;;;5055102;28;20219;-88
2021/06/03 05:26:43;;;;;;;7.20;4.20;;;17.70;1.00;;;;;;5073090;28;20439;-88
2021/06/03 05:29:14;;;;;;;5.70;4.90;;;17.80;1.00;;;;;;5071850;28;20184;-89
2021/06/03 05:31:46;;;;;;;7.47;4.70;;;17.80;1.00;;;;;;5072742;28;20415;-88
2021/06/03 05:34:13;;;;;;;6.70;5.20;;;17.90;1.00;;;;;;5072683;28;20423;-90
2021/06/03 05:36:39;;;;;;;7.20;5.70;;;17.90;1.00;;;;;;5054643;28;20423;-90
2021/06/03 05:39:06;;;;;;;5.20;4.20;;;17.90;1.00;;;;;;5072837;28;20979;-86
2021/06/03 05:41:32;;;;;;;7.37;6.67;;;18.10;1.00;;;;;;5072526;28;20413;-88
2021/06/03 05:43:59;;;;;;;5.03;4.50;;;18.20;1.00;;;;;;5069698;28;20464;-88
2021/06/03 05:46:25;;;;;;;6.87;5.20;;;18.40;1.00;;;;;;5054260;28;20405;-86
2021/06/03 05:48:51;;;;;;;5.80;4.73;;;18.30;1.00;;;;;;5072651;28;20420;-86
2021/06/03 05:51:17;;;;;;;5.17;4.67;;;18.20;1.00;;;;;;5070191;28;20405;-88
2021/06/03 05:53:43;;;;;;;5.30;4.77;;;18.00;1.00;;;;;;5073186;28;20251;-88
2021/06/03 05:56:09;;;;;;;4.83;4.43;;;18.20;1.00;;;;;;5056040;28;20440;-89
2021/06/03 05:58:34;;;;;;;6.13;5.53;;;18.50;1.00;;;;;;5075442;28;20167;-90
2021/06/03 06:01:00;;;;;;;5.60;4.70;;;18.50;1.00;;;;;;5072874;28;20185;-86
2021/06/03 06:03:47;;;;;;;4.93;4.43;;;18.50;1.00;;;;;;5072644;28;20221;-89
2021/06/03 06:06:24;;;;;;;4.47;3.87;;;18.60;1.00;;;;;;5073219;28;20769;-90
2021/06/03 06:08:55;;;;;;;5.17;4.67;;;18.90;1.00;;;;;;5055488;28;20416;-89
2021/06/03 06:11:21;;;;;;;7.60;4.27;;;19.00;1.00;;;;;;5072781;28;20503;-88
2021/06/03 06:13:48;;;;;;;5.80;5.30;;;19.20;1.00;;;;;;5073177;28;20434;-87
2021/06/03 06:16:14;;;;;;;5.97;4.30;;;19.40;1.00;;;;;;5054605;28;20425;-86
2021/06/03 06:18:42;;;;;;;8.10;5.53;;;19.60;1.00;;;;;;5073077;28;20759;-91
2021/06/03 06:21:09;;;;;;;4.93;4.53;;;19.60;1.00;;;;;;5073277;28;20824;-89
2021/06/03 06:23:38;;;;;;;6.03;4.90;;;19.80;1.00;;;;;;5073204;28;20993;-91
2021/06/03 06:26:05;;;;;;;6.23;4.73;;;19.80;1.00;;;;;;5072550;28;20452;-89
2021/06/03 06:28:31;;;;;;;5.47;4.90;;;20.00;1.00;;;;;;5073174;28;20418;-88
2021/06/03 06:30:57;;;;;;;8.73;5.63;;;20.00;1.00;;;;;;5073031;28;20419;-88
2021/06/03 06:33:24;;;;;;;5.40;4.70;;;19.90;1.00;;;;;;5076772;28;20963;-90
2021/06/03 06:35:50;;;;;;;6.27;5.47;;;20.00;1.00;;;;;;5058466;28;20512;-88
2021/06/03 06:38:18;;;;;;;5.60;5.13;;;20.10;1.00;;;;;;5075683;28;20420;-87
2021/06/03 06:40:44;;;;;;;6.00;5.47;;;20.20;1.00;;;;;;5076259;28;20524;-88
2021/06/03 06:43:11;;;;;;;5.57;5.07;;;20.20;1.00;;;;;;5054397;28;20532;-90
2021/06/03 06:45:37;;;;;;;6.03;5.20;;;20.00;1.00;;;;;;5042036;28;20438;-88
2021/06/03 06:48:07;;;;;;;7.00;5.20;;;20.00;1.00;;;;;;5056303;28;20423;-91
2021/06/03 06:50:34;;;;;;;5.40;4.90;;;20.20;1.00;;;;;;5056307;28;20819;-87
2021/06/03 06:53:00;;;;;;;5.20;4.70;;;20.20;1.00;;;;;;5038484;28;20476;-90
2021/06/03 06:55:26;;;;;;;5.20;4.77;;;20.10;1.00;;;;;;5056174;28;20443;-87
2021/06/03 06:57:53;;;;;;;7.97;4.70;;;20.10;1.00;;;;;;5056209;28;20207;-86
2021/06/03 07:00:20;;;;;;;7.13;4.47;;;20.30;1.00;;;;;;5037297;28;20431;-90
2021/06/03 07:02:45;;;;;;;5.90;5.40;;;20.50;1.00;;;;;;5055555;28;20485;-88
2021/06/03 07:05:13;;;;;;;6.20;4.90;;;21.10;1.00;;;;;;5055839;28;20418;-91
2021/06/03 07:07:39;;;;;;;8.13;5.37;;;21.40;1.00;;;;;;5055758;28;20172;-85
2021/06/03 07:10:06;;;;;;;6.17;5.23;;;21.10;1.00;;;;;;5055021;28;20511;-83
2021/06/03 07:12:32;;;;;;;6.10;5.60;;;21.20;1.00;;;;;;5037185;28;20431;-84
2021/06/03 07:14:58;;;;;;;5.63;5.00;;;21.00;1.00;;;;;;5054599;28;20901;-84
2021/06/03 07:17:23;;;;;;;7.23;5.03;;;21.20;1.00;;;;;;5055096;28;20180;-86
2021/06/03 07:19:49;;;;;;;5.53;5.03;;;21.60;99.90;;;;;;5054984;28;20642;-87
2021/06/03 07:22:15;;;;;;;4.93;4.53;;;21.90;1.00;;;;;;5055447;28;20212;-85
2021/06/03 07:24:40;;;;;;;7.60;5.30;;;22.40;99.90;;;;;;5055298;28;20189;-92
2021/06/03 07:27:08;;;;;;;5.27;4.83;;;22.90;99.90;;;;;;5056358;28;20201;-90
2021/06/03 07:29:33;;;;;;;5.03;4.53;;;23.60;17.40;;;;;;5037533;28;20244;-87
2021/06/03 07:31:59;;;;;;;5.27;4.77;;;23.90;1.00;;;;;;5054364;28;20399;-86
2021/06/03 07:34:25;;;;;;;5.43;4.93;;;24.80;1.00;;;;;;5036772;28;20180;-88
2021/06/03 07:36:51;;;;;;;4.37;4.00;;;25.50;1.00;;;;;;5054506;28;20185;-87
2021/06/03 07:39:20;;;;;;;5.73;5.07;;;26.50;1.00;;;;;;5054335;28;20199;-86
2021/06/03 07:41:46;;;;;;;4.90;4.33;;;27.00;1.00;;;;;;5054030;28;20215;-87
2021/06/03 07:44:12;;;;;;;5.37;4.87;;;25.50;1.00;;;;;;5054343;28;20419;-85
2021/06/03 07:46:39;;;;;;;5.03;4.50;;;25.50;1.00;;;;;;5054182;28;20260;-89
2021/06/03 07:49:06;;;;;;;4.97;4.47;;;25.30;99.90;;;;;;5054510;28;20211;-86
2021/06/03 07:51:32;;;;;;;5.17;4.67;;;25.90;1.00;;;;;;5054408;28;20412;-84
2021/06/03 07:53:58;;;;;;;5.10;4.63;;;26.50;1.00;;;;;;5054238;28;20420;-85
2021/06/03 07:56:23;;;;;;;4.87;4.47;;;26.60;99.90;;;;;;5054285;28;20177;-87
2021/06/03 07:58:49;;;;;;;5.77;5.17;;;25.70;1.00;;;;;;5054294;28;20212;-88
2021/06/03 08:01:15;;;;;;;5.40;4.60;;;25.90;16.40;;;;;;5053845;28;20177;-85
2021/06/03 08:03:41;;;;;;;6.50;4.93;;;26.00;1.00;;;;;;5054115;28;20610;-85
2021/06/03 08:06:08;;;;;;;5.50;4.90;;;26.70;1.00;;;;;;5036389;28;20272;-85
2021/06/03 08:08:36;;;;;;;6.80;4.50;;;26.30;1.00;;;;;;5053973;28;20916;-88
2021/06/03 08:11:06;;;;;;;5.30;4.80;;;26.10;1.00;;;;;;5062642;28;20477;-84
2021/06/03 08:13:32;;;;;;;5.57;4.00;;;26.20;1.00;;;;;;5073997;28;20763;-87
2021/06/03 08:15:58;;;;;;;5.27;4.87;;;25.40;1.00;;;;;;5073753;28;20422;-87
2021/06/03 08:18:24;;;;;;;5.03;4.57;;;25.60;1.00;;;;;;5073904;28;20425;-88
2021/06/03 08:20:56;;;;;;;6.40;4.63;;;25.50;99.90;;;;;;5073875;28;20199;-88
2021/06/03 08:23:24;;;;;;;5.27;4.80;;;25.40;99.90;;;;;;5074084;28;20527;-87
2021/06/03 08:25:49;;;;;;;5.50;5.03;;;25.50;99.90;;;;;;5073884;28;20415;-87
2021/06/03 08:28:15;;;;;;;4.27;3.90;;;24.80;99.90;;;;;;5073745;28;20999;-87
2021/06/03 08:30:41;;;;;;;8.90;5.00;;;24.80;1.00;;;;;;5073430;28;20172;-85
2021/06/03 08:33:08;;;;;;;5.47;4.97;;;24.70;1.00;;;;;;5073862;28;20414;-89
2021/06/03 08:35:34;;;;;;;6.00;4.60;;;24.90;99.90;;;;;;5075916;28;20409;-86
2021/06/03 08:38:04;;;;;;;6.93;4.33;;;25.10;1.00;;;;;;5091983;28;20473;-86
2021/06/03 08:40:32;;;;;;;4.03;3.63;;;25.80;99.90;;;;;;5092899;28;20421;-86
2021/06/03 08:43:00;;;;;;;4.60;4.20;;;27.00;37.50;;;;;;5092508;28;20501;-89
2021/06/03 08:45:29;;;;;;;5.93;4.43;;;27.30;99.90;;;;;;5091002;28;20418;-88
2021/06/03 08:47:55;;;;;;;5.27;4.77;;;26.70;99.90;;;;;;5092840;28;20460;-86
2021/06/03 08:50:24;;;;;;;4.27;3.87;;;26.60;1.00;;;;;;5092883;28;20402;-85
2021/06/03 08:52:52;;;;;;;3.97;3.57;;;26.90;1.00;;;;;;5092798;28;20403;-88
2021/06/03 08:58:06;;;;;;;5.03;4.00;;;26.00;1.00;;;;;;5092669;28;20425;-85
2021/06/03 09:00:33;;;;;;;4.40;4.00;;;26.30;1.00;;;;;;5092125;28;20765;-84
2021/06/03 09:02:59;;;;;;;6.63;4.90;;;25.80;1.00;;;;;;5092171;28;20464;-86
2021/06/03 09:05:26;;;;;;;5.73;3.93;;;25.40;99.90;;;;;;5091296;28;20512;-86
2021/06/03 09:07:52;;;;;;;4.37;3.97;;;25.60;1.00;;;;;;5092082;28;20524;-87
2021/06/03 09:10:29;;;;;;;5.23;4.30;;;26.00;76.10;;;;;;5089541;28;20773;-88
2021/06/03 09:13:17;;;;;;;6.87;4.33;;;26.00;1.00;;;;;;5072290;28;20460;-89
2021/06/03 09:15:47;;;;;;;4.83;4.47;;;26.20;99.90;;;;;;5037150;28;20469;-84
2021/06/03 09:18:13;;;;;;;5.83;4.20;;;26.60;1.00;;;;;;5054321;28;20560;-85
2021/06/03 09:20:43;;;;;;;4.57;3.97;;;27.00;1.00;;;;;;5072093;28;20464;-88
2021/06/03 09:23:25;;;;;;;3.53;3.00;;;27.00;99.90;;;;;;5072055;28;20459;-87
2021/06/03 09:25:51;;;;;;;4.43;3.73;;;26.70;99.90;;;;;;5052607;28;20446;-85
2021/06/03 09:28:24;;;;;;;5.27;4.20;;;25.90;99.90;;;;;;5071912;28;20464;-89
2021/06/03 09:30:52;;;;;;;3.83;3.53;;;25.60;1.00;;;;;;5066929;28;20165;-85
2021/06/03 09:33:18;;;;;;;4.47;3.67;;;25.60;1.00;;;;;;5071679;28;20776;-87
2021/06/03 09:36:03;;;;;;;4.50;4.20;;;25.80;17.50;;;;;;5066430;28;20410;-87
2021/06/03 09:38:28;;;;;;;6.17;4.00;;;25.60;1.00;;;;;;5051887;28;20175;-87
2021/06/03 09:40:54;;;;;;;5.53;3.40;;;25.20;1.00;;;;;;5053895;28;20415;-85
2021/06/03 09:43:23;;;;;;;4.77;4.33;;;25.00;1.00;;;;;;5071699;28;20218;-85
2021/06/03 09:46:07;;;;;;;8.53;4.17;;;25.10;1.00;;;;;;5071187;28;20168;-85
2021/06/03 09:48:37;;;;;;;4.63;4.10;;;25.10;1.00;;;;;;5046750;28;20418;-88
2021/06/03 09:51:17;;;;;;;4.00;3.70;;;25.00;1.00;;;;;;5071660;28;20437;-85
2021/06/03 09:53:56;;;;;;;4.30;3.87;;;24.60;1.00;;;;;;5071587;28;20426;-86
2021/06/03 09:56:34;;;;;;;4.70;3.60;;;24.50;99.90;;;;;;5053700;28;20410;-85
2021/06/03 09:59:01;;;;;;;4.27;3.87;;;24.40;99.90;;;;;;5053873;28;20417;-87
2021/06/03 10:01:47;;;;;;;4.80;3.47;;;24.40;99.90;;;;;;5071274;28;20421;-87
2021/06/03 10:04:18;;;;;;;5.47;4.00;;;24.30;1.00;;;;;;5057660;28;20485;-90
2021/06/03 10:07:06;;;;;;;7.00;4.77;;;24.30;1.00;;;;;;5075237;28;20523;-87
2021/06/03 10:09:41;;;;;;;3.70;3.30;;;24.30;1.00;;;;;;5073999;28;20492;-87
2021/06/03 10:12:10;;;;;;;4.20;3.47;;;24.30;1.00;;;;;;5073139;28;20495;-85
2021/06/03 10:14:37;;;;;;;3.87;3.57;;;24.20;1.00;;;;;;5075023;28;20428;-85
2021/06/03 10:17:17;;;;;;;4.70;4.00;;;24.30;1.00;;;;;;5075202;28;20466;-88
2021/06/03 10:19:44;;;;;;;5.60;4.03;;;24.40;1.00;;;;;;5075310;28;20806;-88
2021/06/03 10:22:09;;;;;;;4.03;3.73;;;24.40;1.00;;;;;;5075021;28;20953;-86
2021/06/03 10:24:57;;;;;;;4.37;3.00;;;24.40;1.00;;;;;;5075268;28;20430;-88
2021/06/03 10:27:26;;;;;;;5.60;3.70;;;24.50;99.90;;;;;;5075016;28;20164;-89
2021/06/03 10:29:53;;;;;;;4.83;3.63;;;24.40;1.00;;;;;;5074789;28;20418;-87
2021/06/03 10:32:23;;;;;;;7.93;3.70;;;24.30;36.00;;;;;;5075222;28;20486;-88
2021/06/03 10:34:51;;;;;;;3.33;3.03;;;24.40;1.00;;;;;;5072974;28;20409;-87
2021/06/03 10:37:19;;;;;;;4.67;3.10;;;24.20;99.90;;;;;;5074914;28;20854;-86
2021/06/03 10:39:48;;;;;;;5.27;3.87;;;24.40;1.00;;;;;;5054560;28;20470;-89
2021/06/03 10:42:16;;;;;;;4.50;3.60;;;24.50;99.90;;;;;;5057092;28;20453;-89
2021/06/03 10:44:43;;;;;;;5.93;3.90;;;24.50;1.00;;;;;;5074508;28;20477;-88
2021/06/03 10:47:10;;;;;;;6.13;4.30;;;24.60;1.00;;;;;;5057022;28;20445;-84
2021/06/03 10:49:36;;;;;;;3.73;2.83;;;24.80;99.90;;;;;;5075915;28;20505;-88
2021/06/03 10:52:07;;;;;;;4.23;3.13;;;24.50;1.00;;;;;;5075881;28;20917;-87
2021/06/03 10:54:43;;;;;;;4.43;3.60;;;24.50;1.00;;;;;;5057846;28;20781;-88
2021/06/03 10:57:11;;;;;;;4.50;4.10;;;24.60;1.00;;;;;;5075623;28;20405;-85
2021/06/03 10:59:37;;;;;;;4.13;3.20;;;24.60;1.00;;;;;;5057455;28;20421;-86
2021/06/03 11:02:07;;;;;;;4.23;3.57;;;24.60;1.00;;;;;;5057451;28;20417;-85
2021/06/03 11:04:34;;;;;;;4.10;3.80;;;24.60;3.40;;;;;;5057706;28;20430;-86
2021/06/03 11:06:59;;;;;;;3.60;3.10;;;24.60;99.90;;;;;;5057603;28;20918;-86
2021/06/03 11:09:31;;;;;;;4.70;3.53;;;24.50;1.00;;;;;;5075640;28;20422;-86
2021/06/03 11:12:18;;;;;;;4.00;3.30;;;24.40;1.00;;;;;;5075561;28;20227;-85
2021/06/03 11:15:07;;;;;;;3.80;3.40;;;24.60;58.60;;;;;;5075085;28;20521;-86
2021/06/03 11:18:02;;;;;;;6.13;4.27;;;24.40;1.00;;;;;;5074681;28;20464;-86
2021/06/03 11:20:46;;;;;;;4.07;3.63;;;24.40;99.90;;;;;;5075431;28;20411;-87
2021/06/03 11:23:33;;;;;;;6.50;3.90;;;24.60;99.90;;;;;;5075071;28;20466;-86
2021/06/03 11:26:03;;;;;;;5.23;3.47;;;24.40;99.90;;;;;;5075208;28;20455;-86
2021/06/03 11:28:28;;;;;;;4.10;3.70;;;24.50;99.90;;;;;;5075044;28;20782;-86
2021/06/03 11:30:55;;;;;;;4.37;4.03;;;24.40;1.00;;;;;;5074723;28;20421;-85
2021/06/03 11:33:21;;;;;;;4.37;4.07;;;24.40;1.00;;;;;;5075088;28;20163;-87
2021/06/03 11:35:47;;;;;;;3.73;3.43;;;24.50;1.00;;;;;;5075072;28;20415;-86
2021/06/03 11:38:39;;;;;;;4.50;4.07;;;24.50;1.00;;;;;;5074894;28;20803;-84
2021/06/03 11:41:05;;;;;;;4.00;3.70;;;24.40;99.90;;;;;;5074856;28;20411;-86
2021/06/03 11:43:30;;;;;;;4.37;3.97;;;24.40;57.00;;;;;;5056752;28;20530;-85
2021/06/03 11:45:58;;;;;;;5.33;4.40;;;24.40;1.00;;;;;;5074363;28;20256;-85
2021/06/03 11:48:32;;;;;;;6.93;3.63;;;24.40;1.00;;;;;;5074761;28;20185;-86
2021/06/03 11:51:05;;;;;;;3.80;3.50;;;24.50;99.90;;;;;;5074716;28;20410;-87
2021/06/03 11:53:32;;;;;;;5.00;4.60;;;24.60;99.90;;;;;;5074541;28;20446;-86
2021/06/03 11:56:14;;;;;;;7.40;4.03;;;24.50;1.00;;;;;;5074465;28;20419;-85
2021/06/03 11:58:39;;;;;;;5.40;4.50;;;24.40;99.90;;;;;;5056508;28;20514;-86
2021/06/03 12:01:15;;;;;;;4.83;3.90;;;24.40;1.00;;;;;;5073899;28;20498;-87
2021/06/03 12:03:42;;;;;;;4.30;4.00;;;24.40;9.90;;;;;;5056372;28;20342;-84
2021/06/03 12:06:13;;;;;;;6.87;4.03;;;24.60;1.00;;;;;;5074261;28;20413;-87
2021/06/03 12:08:44;;;;;;;5.63;4.33;;;24.40;99.90;;;;;;5056165;28;20427;-85
2021/06/03 12:11:13;;;;;;;6.53;4.67;;;24.60;1.00;;;;;;5074231;28;20462;-86
2021/06/03 12:13:40;;;;;;;4.30;4.00;;;24.70;1.00;;;;;;5075006;28;20414;-86
2021/06/03 12:16:07;;;;;;;4.43;3.53;;;24.60;1.00;;;;;;5073837;28;20828;-87
2021/06/03 12:18:40;;;;;;;7.23;3.73;;;24.70;99.90;;;;;;5074033;28;20409;-84
2021/06/03 12:21:09;;;;;;;4.30;3.90;;;24.80;36.10;;;;;;5074031;28;20501;-84
2021/06/03 12:23:49;;;;;;;4.80;3.70;;;24.60;1.00;;;;;;5073899;28;20480;-85
2021/06/03 12:26:25;;;;;;;4.50;3.30;;;24.50;99.90;;;;;;5073929;28;20406;-84
2021/06/03 12:28:51;;;;;;;4.10;3.80;;;24.50;99.90;;;;;;5054735;28;20822;-83
2021/06/03 12:31:25;;;;;;;4.60;4.17;;;24.40;99.90;;;;;;5073694;28;20427;-84
2021/06/03 12:33:52;;;;;;;4.97;3.50;;;24.40;1.00;;;;;;5073858;28;20416;-84
2021/06/03 12:36:19;;;;;;;4.93;3.60;;;24.30;99.90;;;;;;5073909;28;20423;-84
2021/06/03 12:38:53;;;;;;;6.23;4.10;;;24.30;99.90;;;;;;5073671;28;20414;-85
2021/06/03 12:41:19;;;;;;;4.77;4.30;;;24.30;1.00;;;;;;5073554;28;20415;-84
2021/06/03 12:43:50;;;;;;;4.53;3.73;;;24.30;99.90;;;;;;5073584;28;20481;-85
2021/06/03 12:46:16;;;;;;;4.10;3.73;;;24.50;1.00;;;;;;5073626;28;20435;-85
2021/06/03 12:48:42;;;;;;;4.90;3.70;;;24.60;99.90;;;;;;5073538;28;20437;-85
2021/06/03 12:51:11;;;;;;;4.17;3.50;;;24.60;1.00;;;;;;5073726;28;20203;-84
2021/06/03 12:53:37;;;;;;;4.17;3.63;;;24.60;1.00;;;;;;5039282;28;20424;-84
2021/06/03 12:56:17;;;;;;;4.30;3.80;;;24.40;99.90;;;;;;5073459;28;20414;-84
2021/06/03 12:58:42;;;;;;;4.83;3.90;;;24.30;1.00;;;;;;5073426;28;20171;-85
2021/06/03 13:01:09;;;;;;;6.27;4.23;;;24.20;1.00;;;;;;5073123;28;20413;-85
2021/06/03 13:03:35;;;;;;;6.10;4.13;;;24.40;1.00;;;;;;5055343;28;20550;-84